createdAt,value
2022-10-10T00:00:15.318Z,42.42
2022-10-10T00:00:38.052Z,40.83
2022-10-10T00:00:59.757Z,43.67
2022-10-10T00:01:23.147Z,46.88
2022-10-10T00:01:44.945Z,44.70
2022-10-10T00:02:07.048Z,42.03
2022-10-10T00:02:28.780Z,39.83
2022-10-10T00:02:50.832Z,41.53
2022-10-10T00:03:13.060Z,43.03
2022-10-10T00:03:34.939Z,42.78
2022-10-10T00:03:56.807Z,44.40
2022-10-10T00:04:18.541Z,39.83
2022-10-10T00:04:40.735Z,36.95
2022-10-10T00:05:03.086Z,38.28
2022-10-10T00:05:25.536Z,38.38
2022-10-10T00:05:48.001Z,41.30
2022-10-10T00:06:11.070Z,38.55
2022-10-10T00:06:33.722Z,39.42
2022-10-10T00:06:55.517Z,35.42
2022-10-10T00:07:17.198Z,37.58
2022-10-10T00:07:39.104Z,37.95
2022-10-10T00:08:02.115Z,35.85
2022-10-10T00:08:24.036Z,33.50
2022-10-10T00:08:46.415Z,39.38
2022-10-10T00:09:08.610Z,37.85
2022-10-10T00:09:30.396Z,38.28
2022-10-10T00:09:52.207Z,38.58
2022-10-10T00:10:14.284Z,36.80
2022-10-10T00:10:36.510Z,37.45
2022-10-10T00:10:58.228Z,39.25
2022-10-10T00:11:23.100Z,39.17
2022-10-10T00:11:45.340Z,41.00
2022-10-10T00:12:07.160Z,40.75
2022-10-10T00:12:28.919Z,40.28
2022-10-10T00:12:50.977Z,41.28
2022-10-10T00:13:12.928Z,40.38
2022-10-10T00:13:35.607Z,39.15
2022-10-10T00:13:57.623Z,41.65
2022-10-10T00:14:19.401Z,41.88
2022-10-10T00:14:41.434Z,39.75
2022-10-10T00:15:04.572Z,39.30
2022-10-10T00:15:26.303Z,37.65
2022-10-10T00:15:49.050Z,38.22
2022-10-10T00:16:11.483Z,36.10
2022-10-10T00:16:34.732Z,35.75
2022-10-10T00:16:56.443Z,39.00
2022-10-10T00:17:18.161Z,35.25
2022-10-10T00:17:40.480Z,35.75
2022-10-10T00:18:03.880Z,35.72
2022-10-10T00:18:25.947Z,38.50
2022-10-10T00:18:48.368Z,36.08
2022-10-10T00:19:10.286Z,35.38
2022-10-10T00:19:32.026Z,37.67
2022-10-10T00:19:54.006Z,37.97
2022-10-10T00:20:18.690Z,38.08
2022-10-10T00:20:40.659Z,37.85
2022-10-10T00:21:02.618Z,36.30
2022-10-10T00:21:24.744Z,37.50
2022-10-10T00:21:47.916Z,34.92
2022-10-10T00:22:09.668Z,32.72
2022-10-10T00:22:31.372Z,34.97
2022-10-10T00:22:53.683Z,34.00
2022-10-10T00:23:15.531Z,33.95
2022-10-10T00:23:38.190Z,34.50
2022-10-10T00:24:00.956Z,33.40
2022-10-10T00:24:22.820Z,36.58
2022-10-10T00:24:44.495Z,37.33
2022-10-10T00:25:09.162Z,36.15
2022-10-10T00:25:30.935Z,33.90
2022-10-10T00:25:52.927Z,35.08
2022-10-10T00:26:18.906Z,32.92
2022-10-10T00:26:41.152Z,38.55
2022-10-10T00:27:02.875Z,39.75
2022-10-10T00:27:24.626Z,35.60
2022-10-10T00:27:46.376Z,37.00
2022-10-10T00:28:08.140Z,37.40
2022-10-10T00:28:29.885Z,35.40
2022-10-10T00:28:51.845Z,35.50
2022-10-10T00:29:13.524Z,35.78
2022-10-10T00:29:35.200Z,34.63
2022-10-10T00:29:56.868Z,32.25
2022-10-10T00:30:18.896Z,35.75
2022-10-10T00:30:41.321Z,34.25
2022-10-10T00:31:02.998Z,34.78
2022-10-10T00:31:24.818Z,35.08
2022-10-10T00:31:46.721Z,34.15
2022-10-10T00:32:08.883Z,32.90
2022-10-10T00:32:30.716Z,35.90
2022-10-10T00:32:52.840Z,36.53
2022-10-10T00:33:15.001Z,33.50
2022-10-10T00:33:37.950Z,35.00
2022-10-10T00:33:59.826Z,35.40
2022-10-10T00:34:21.597Z,34.97
2022-10-10T00:34:43.329Z,30.55
2022-10-10T00:35:05.612Z,33.42
2022-10-10T00:35:28.528Z,34.78
2022-10-10T00:35:50.293Z,34.00
2022-10-10T00:36:12.207Z,34.92
2022-10-10T00:36:34.232Z,31.55
2022-10-10T00:36:55.997Z,31.30
2022-10-10T00:37:17.711Z,31.65
2022-10-10T00:37:39.448Z,34.35
2022-10-10T00:38:02.929Z,34.55
2022-10-10T00:38:24.837Z,37.00
2022-10-10T00:38:46.632Z,34.13
2022-10-10T00:39:08.648Z,34.33
2022-10-10T00:39:30.952Z,35.08
2022-10-10T00:39:52.713Z,31.40
2022-10-10T00:40:14.658Z,33.53
2022-10-10T00:40:45.039Z,33.10
2022-10-10T00:41:07.701Z,33.05
2022-10-10T00:41:29.788Z,32.17
2022-10-10T00:41:51.704Z,33.85
2022-10-10T00:42:15.448Z,31.70
2022-10-10T00:42:37.507Z,30.30
2022-10-10T00:42:59.507Z,31.60
2022-10-10T00:43:23.073Z,34.47
2022-10-10T00:44:02.231Z,30.08
2022-10-10T00:44:24.000Z,34.33
2022-10-10T00:44:47.093Z,36.38
2022-10-10T00:45:26.459Z,33.80
2022-10-10T00:45:49.180Z,30.83
2022-10-10T00:46:11.112Z,30.45
2022-10-10T00:46:32.888Z,32.53
2022-10-10T00:46:55.337Z,35.83
2022-10-10T00:47:17.028Z,34.05
2022-10-10T00:47:38.726Z,31.77
2022-10-10T00:48:28.880Z,32.20
2022-10-10T00:48:51.732Z,32.90
2022-10-10T00:49:16.738Z,31.35
2022-10-10T00:49:42.210Z,34.72
2022-10-10T00:50:04.889Z,33.72
2022-10-10T00:50:27.001Z,29.67
2022-10-10T00:50:51.377Z,33.97
2022-10-10T00:51:16.521Z,30.48
2022-10-10T00:51:38.779Z,31.67
2022-10-10T00:52:01.049Z,29.63
2022-10-10T00:52:22.733Z,31.30
2022-10-10T00:52:44.627Z,29.35
2022-10-10T00:53:08.740Z,33.00
2022-10-10T00:53:39.929Z,32.88
2022-10-10T00:54:05.791Z,30.08
2022-10-10T00:54:29.169Z,30.10
2022-10-10T00:54:51.094Z,34.90
2022-10-10T00:55:13.874Z,33.88
2022-10-10T00:55:36.373Z,31.98
2022-10-10T00:55:59.281Z,32.33
2022-10-10T00:56:27.303Z,30.45
2022-10-10T00:57:08.321Z,29.15
2022-10-10T00:57:30.100Z,31.15
2022-10-10T00:57:52.071Z,29.75
2022-10-10T00:58:15.901Z,30.05
2022-10-10T00:58:42.690Z,29.92
2022-10-10T00:59:06.284Z,28.95
2022-10-10T00:59:32.543Z,27.98
2022-10-10T00:59:54.341Z,31.67
2022-10-10T01:00:16.263Z,30.52
2022-10-10T01:00:38.023Z,28.30
2022-10-10T01:00:59.865Z,28.65
2022-10-10T01:01:22.119Z,27.40
2022-10-10T01:01:43.915Z,30.65
2022-10-10T01:02:06.216Z,30.90
2022-10-10T01:02:28.157Z,29.67
2022-10-10T01:02:50.211Z,26.67
2022-10-10T01:03:12.129Z,29.08
2022-10-10T01:03:33.872Z,28.75
2022-10-10T01:04:00.854Z,26.88
2022-10-10T01:04:45.440Z,27.60
2022-10-10T01:05:07.962Z,30.52
2022-10-10T01:05:30.695Z,28.77
2022-10-10T01:05:52.508Z,31.27
2022-10-10T01:06:14.429Z,31.05
2022-10-10T01:06:36.348Z,31.38
2022-10-10T01:06:58.327Z,30.63
2022-10-10T01:07:24.759Z,31.77
2022-10-10T01:07:46.596Z,30.35
2022-10-10T01:08:09.832Z,30.23
2022-10-10T01:08:31.772Z,30.77
2022-10-10T01:08:55.199Z,29.48
2022-10-10T01:09:16.939Z,31.00
2022-10-10T01:09:41.287Z,31.80
2022-10-10T01:10:11.303Z,30.00
2022-10-10T01:10:38.560Z,28.17
2022-10-10T01:11:58.976Z,33.53
2022-10-10T01:12:48.918Z,28.25
2022-10-10T01:13:39.945Z,29.63
2022-10-10T01:14:22.170Z,30.20
2022-10-10T01:15:01.994Z,32.60
2022-10-10T01:15:40.537Z,25.85
2022-10-10T01:16:25.217Z,27.05
2022-10-10T01:16:49.874Z,29.67
2022-10-10T01:17:11.533Z,29.95
2022-10-10T01:17:41.775Z,26.45
2022-10-10T01:18:03.445Z,27.00
2022-10-10T01:19:05.402Z,25.77
2022-10-10T01:20:02.179Z,26.40
2022-10-10T01:20:50.970Z,28.27
2022-10-10T01:21:25.729Z,30.00
2022-10-10T01:22:14.693Z,29.15
2022-10-10T01:23:13.503Z,27.48
2022-10-10T01:23:41.249Z,27.92
2022-10-10T01:24:11.866Z,30.30
2022-10-10T01:25:10.877Z,26.88
2022-10-10T01:25:59.120Z,29.40
2022-10-10T01:26:39.947Z,27.65
2022-10-10T01:27:21.828Z,29.30
2022-10-10T01:28:13.112Z,29.05
2022-10-10T01:29:02.061Z,27.60
2022-10-10T01:29:33.598Z,26.27
2022-10-10T01:30:07.172Z,25.13
2022-10-10T01:30:30.963Z,28.02
2022-10-10T01:30:54.071Z,29.17
2022-10-10T01:31:22.657Z,28.27
2022-10-10T01:31:47.635Z,27.40
2022-10-10T01:32:15.918Z,28.80
2022-10-10T01:32:46.292Z,28.45
2022-10-10T01:33:22.120Z,27.23
2022-10-10T01:33:55.439Z,28.00
2022-10-10T01:34:55.445Z,30.15
2022-10-10T01:35:34.702Z,26.20
2022-10-10T01:36:06.859Z,26.42
2022-10-10T01:36:48.747Z,28.75
2022-10-10T01:37:41.625Z,29.40
2022-10-10T01:38:08.511Z,28.95
2022-10-10T01:38:43.930Z,29.75
2022-10-10T01:39:18.286Z,29.10
2022-10-10T01:40:13.201Z,28.77
2022-10-10T01:40:59.660Z,26.40
2022-10-10T01:41:33.369Z,28.00
2022-10-10T01:42:03.147Z,26.88
2022-10-10T01:42:43.806Z,27.42
2022-10-10T01:43:08.696Z,28.42
2022-10-10T01:43:30.760Z,28.27
2022-10-10T01:43:57.226Z,25.50
2022-10-10T01:44:21.176Z,27.88
2022-10-10T01:44:47.444Z,27.50
2022-10-10T01:45:09.810Z,31.10
2022-10-10T01:45:31.903Z,29.60
2022-10-10T01:45:54.583Z,30.40
2022-10-10T01:46:18.511Z,30.05
2022-10-10T01:46:40.188Z,29.58
2022-10-10T01:47:01.994Z,29.13
2022-10-10T01:47:23.808Z,30.38
2022-10-10T01:47:46.150Z,30.15
2022-10-10T01:48:08.026Z,31.20
2022-10-10T01:48:31.923Z,30.80
2022-10-10T01:48:57.651Z,32.88
2022-10-10T01:49:21.124Z,28.90
2022-10-10T01:49:44.770Z,28.80
2022-10-10T01:50:15.006Z,28.75
2022-10-10T01:51:04.137Z,31.15
2022-10-10T01:51:37.271Z,31.05
2022-10-10T01:52:06.210Z,28.52
2022-10-10T01:52:59.832Z,29.27
2022-10-10T01:53:36.226Z,32.47
2022-10-10T01:54:18.764Z,31.23
2022-10-10T01:55:11.279Z,27.40
2022-10-10T01:55:58.338Z,28.08
2022-10-10T01:56:35.589Z,29.42
2022-10-10T01:57:32.201Z,31.95
2022-10-10T01:58:25.426Z,29.35
2022-10-10T01:59:21.411Z,30.83
2022-10-10T01:59:58.502Z,32.22
2022-10-10T02:00:20.461Z,30.67
2022-10-10T02:00:54.376Z,28.70
2022-10-10T02:01:25.145Z,32.17
2022-10-10T02:02:16.084Z,30.88
2022-10-10T02:02:42.105Z,30.02
2022-10-10T02:03:19.638Z,31.23
2022-10-10T02:03:47.171Z,29.25
2022-10-10T02:04:11.730Z,30.58
2022-10-10T02:04:46.074Z,31.60
2022-10-10T02:05:36.286Z,29.77
2022-10-10T02:06:07.981Z,30.20
2022-10-10T02:06:44.336Z,31.40
2022-10-10T02:07:15.982Z,30.70
2022-10-10T02:07:43.778Z,30.50
2022-10-10T02:08:14.238Z,29.48
2022-10-10T02:08:43.064Z,29.63
2022-10-10T02:09:10.136Z,30.15
2022-10-10T02:09:37.263Z,33.90
2022-10-10T02:10:02.871Z,34.38
2022-10-10T02:10:30.429Z,32.42
2022-10-10T02:10:58.995Z,30.00
2022-10-10T02:11:21.033Z,27.85
2022-10-10T02:11:43.178Z,28.35
2022-10-10T02:12:06.960Z,30.08
2022-10-10T02:12:30.967Z,31.50
2022-10-10T02:12:54.629Z,29.40
2022-10-10T02:13:18.166Z,30.00
2022-10-10T02:13:49.588Z,31.23
2022-10-10T02:14:40.390Z,29.88
2022-10-10T02:15:12.599Z,29.83
2022-10-10T02:15:45.683Z,28.02
2022-10-10T02:16:13.876Z,28.52
2022-10-10T02:16:38.939Z,27.48
2022-10-10T02:17:02.380Z,28.58
2022-10-10T02:17:26.152Z,30.70
2022-10-10T02:17:49.430Z,28.83
2022-10-10T02:18:13.848Z,29.40
2022-10-10T02:18:37.311Z,28.65
2022-10-10T02:19:02.477Z,31.13
2022-10-10T02:19:25.724Z,31.17
2022-10-10T02:19:56.924Z,32.22
2022-10-10T02:20:22.597Z,29.17
2022-10-10T02:20:45.841Z,28.50
2022-10-10T02:21:09.486Z,28.13
2022-10-10T02:21:32.531Z,28.75
2022-10-10T02:21:55.500Z,27.55
2022-10-10T02:22:18.058Z,30.30
2022-10-10T02:22:43.480Z,27.13
2022-10-10T02:23:06.933Z,28.60
2022-10-10T02:23:28.883Z,26.38
2022-10-10T02:23:52.779Z,28.85
2022-10-10T02:24:15.858Z,30.77
2022-10-10T02:24:37.701Z,29.90
2022-10-10T02:24:59.512Z,30.05
2022-10-10T02:25:27.015Z,28.88
2022-10-10T02:25:53.270Z,27.67
2022-10-10T02:26:17.709Z,30.23
2022-10-10T02:26:43.477Z,30.15
2022-10-10T02:27:30.357Z,29.05
2022-10-10T02:28:16.671Z,29.13
2022-10-10T02:29:01.864Z,29.50
2022-10-10T02:29:28.867Z,29.92
2022-10-10T02:29:53.263Z,28.63
2022-10-10T02:30:16.123Z,27.00
2022-10-10T02:30:42.991Z,27.77
2022-10-10T02:31:10.313Z,27.48
2022-10-10T02:31:55.891Z,28.50
2022-10-10T02:32:23.179Z,28.55
2022-10-10T02:32:51.794Z,29.23
2022-10-10T02:33:23.669Z,29.15
2022-10-10T02:33:53.206Z,29.75
2022-10-10T02:34:18.796Z,26.92
2022-10-10T02:34:45.419Z,27.05
2022-10-10T02:35:26.986Z,27.83
2022-10-10T02:35:52.969Z,28.50
2022-10-10T02:36:17.818Z,28.17
2022-10-10T02:36:43.622Z,28.85
2022-10-10T02:37:10.806Z,29.40
2022-10-10T02:37:33.472Z,28.25
2022-10-10T02:37:57.869Z,27.52
2022-10-10T02:38:22.032Z,28.63
2022-10-10T02:38:45.471Z,27.17
2022-10-10T02:39:07.806Z,27.27
2022-10-10T02:39:33.658Z,28.65
2022-10-10T02:40:00.717Z,29.77
2022-10-10T02:40:26.367Z,26.60
2022-10-10T02:40:49.419Z,27.42
2022-10-10T02:41:16.461Z,25.77
2022-10-10T02:41:38.927Z,24.33
2022-10-10T02:42:01.098Z,27.52
2022-10-10T02:42:23.474Z,29.63
2022-10-10T02:42:47.633Z,25.83
2022-10-10T02:43:11.016Z,28.48
2022-10-10T02:43:34.972Z,26.95
2022-10-10T02:43:57.304Z,29.27
2022-10-10T02:44:20.287Z,27.33
2022-10-10T02:44:42.364Z,26.25
2022-10-10T02:45:05.386Z,28.30
2022-10-10T02:45:33.054Z,30.35
2022-10-10T02:45:54.757Z,25.77
2022-10-10T02:46:16.691Z,26.08
2022-10-10T02:46:38.521Z,26.25
2022-10-10T02:47:00.324Z,26.90
2022-10-10T02:47:22.348Z,29.50
2022-10-10T02:47:45.239Z,27.17
2022-10-10T02:48:07.394Z,26.95
2022-10-10T02:48:30.640Z,28.30
2022-10-10T02:48:52.957Z,25.55
2022-10-10T02:49:14.730Z,27.52
2022-10-10T02:49:36.895Z,29.55
2022-10-10T02:49:58.804Z,28.35
2022-10-10T02:50:21.945Z,25.95
2022-10-10T02:50:44.513Z,25.45
2022-10-10T02:51:07.306Z,26.02
2022-10-10T02:51:30.508Z,27.58
2022-10-10T02:51:52.348Z,28.90
2022-10-10T02:52:15.539Z,27.70
2022-10-10T02:52:37.498Z,28.90
2022-10-10T02:53:00.072Z,28.45
2022-10-10T02:53:21.797Z,28.08
2022-10-10T02:53:43.603Z,28.52
2022-10-10T02:54:07.175Z,25.95
2022-10-10T02:54:29.290Z,27.35
2022-10-10T02:54:51.011Z,28.60
2022-10-10T02:55:12.760Z,28.40
2022-10-10T02:55:34.486Z,27.58
2022-10-10T02:55:56.185Z,26.55
2022-10-10T02:56:17.894Z,27.90
2022-10-10T02:56:39.838Z,27.42
2022-10-10T02:57:01.512Z,24.95
2022-10-10T02:57:23.274Z,26.02
2022-10-10T02:57:45.230Z,25.70
2022-10-10T02:58:07.961Z,25.50
2022-10-10T02:58:29.750Z,26.65
2022-10-10T02:58:51.538Z,26.60
2022-10-10T02:59:13.318Z,27.85
2022-10-10T02:59:35.083Z,26.75
2022-10-10T02:59:57.189Z,28.52
2022-10-10T03:00:19.343Z,27.88
2022-10-10T03:00:41.266Z,27.42
2022-10-10T03:01:03.400Z,27.75
2022-10-10T03:01:25.202Z,26.40
2022-10-10T03:01:46.980Z,26.60
2022-10-10T03:02:08.858Z,27.92
2022-10-10T03:02:30.552Z,28.95
2022-10-10T03:02:52.771Z,27.80
2022-10-10T03:03:14.814Z,27.45
2022-10-10T03:03:36.567Z,28.70
2022-10-10T03:03:58.270Z,25.92
2022-10-10T03:04:20.163Z,27.73
2022-10-10T03:04:42.200Z,26.45
2022-10-10T03:05:05.938Z,27.27
2022-10-10T03:05:27.890Z,27.85
2022-10-10T03:05:50.044Z,26.25
2022-10-10T03:06:11.946Z,26.35
2022-10-10T03:06:33.790Z,27.10
2022-10-10T03:06:55.881Z,25.42
2022-10-10T03:07:17.603Z,26.58
2022-10-10T03:07:39.623Z,27.08
2022-10-10T03:08:01.378Z,25.20
2022-10-10T03:08:23.160Z,26.15
2022-10-10T03:08:44.902Z,29.00
2022-10-10T03:09:07.337Z,28.90
2022-10-10T03:09:29.253Z,26.60
2022-10-10T03:09:51.839Z,24.92
2022-10-10T03:10:13.544Z,25.73
2022-10-10T03:10:35.314Z,27.88
2022-10-10T03:10:59.916Z,26.42
2022-10-10T03:11:21.616Z,26.75
2022-10-10T03:11:44.778Z,26.42
2022-10-10T03:12:06.713Z,26.20
2022-10-10T03:12:28.467Z,26.38
2022-10-10T03:12:50.413Z,26.13
2022-10-10T03:13:12.290Z,27.25
2022-10-10T03:13:34.046Z,26.75
2022-10-10T03:13:55.759Z,23.90
2022-10-10T03:14:17.438Z,25.20
2022-10-10T03:14:39.151Z,24.65
2022-10-10T03:15:00.856Z,25.88
2022-10-10T03:15:22.810Z,25.15
2022-10-10T03:15:44.520Z,26.15
2022-10-10T03:16:06.858Z,28.95
2022-10-10T03:16:28.682Z,27.00
2022-10-10T03:16:50.421Z,25.52
2022-10-10T03:17:12.409Z,25.05
2022-10-10T03:17:34.346Z,26.83
2022-10-10T03:17:56.073Z,26.25
2022-10-10T03:18:18.022Z,28.50
2022-10-10T03:18:39.925Z,25.23
2022-10-10T03:19:03.273Z,26.50
2022-10-10T03:19:25.318Z,26.98
2022-10-10T03:19:47.035Z,24.00
2022-10-10T03:20:09.360Z,23.23
2022-10-10T03:20:31.292Z,23.98
2022-10-10T03:20:56.155Z,27.38
2022-10-10T03:21:17.877Z,26.90
2022-10-10T03:21:39.567Z,24.02
2022-10-10T03:22:01.440Z,23.95
2022-10-10T03:22:23.329Z,22.60
2022-10-10T03:22:45.033Z,23.83
2022-10-10T03:23:06.743Z,24.50
2022-10-10T03:23:29.674Z,24.27
2022-10-10T03:23:51.627Z,26.33
2022-10-10T03:24:13.699Z,28.07
2022-10-10T03:24:35.485Z,25.63
2022-10-10T03:24:57.234Z,26.30
2022-10-10T03:25:18.994Z,25.90
2022-10-10T03:25:42.188Z,23.52
2022-10-10T03:26:04.250Z,23.38
2022-10-10T03:26:25.941Z,23.88
2022-10-10T03:26:48.043Z,25.05
2022-10-10T03:27:09.944Z,25.88
2022-10-10T03:27:31.861Z,24.55
2022-10-10T03:27:53.545Z,24.40
2022-10-10T03:28:15.716Z,24.90
2022-10-10T03:28:38.221Z,23.35
2022-10-10T03:29:02.474Z,22.38
2022-10-10T03:29:24.303Z,25.35
2022-10-10T03:29:46.191Z,24.77
2022-10-10T03:30:08.475Z,25.23
2022-10-10T03:30:30.457Z,26.13
2022-10-10T03:30:52.352Z,26.83
2022-10-10T03:31:14.803Z,24.40
2022-10-10T03:31:36.875Z,22.85
2022-10-10T03:31:58.682Z,22.67
2022-10-10T03:32:20.457Z,24.67
2022-10-10T03:32:42.152Z,24.27
2022-10-10T03:33:04.066Z,25.52
2022-10-10T03:33:25.790Z,24.48
2022-10-10T03:33:47.525Z,22.45
2022-10-10T03:34:09.628Z,22.85
2022-10-10T03:34:31.486Z,21.85
2022-10-10T03:34:53.187Z,24.15
2022-10-10T03:35:14.950Z,27.15
2022-10-10T03:35:37.237Z,27.55
2022-10-10T03:35:59.166Z,27.27
2022-10-10T03:36:21.189Z,28.10
2022-10-10T03:36:42.949Z,25.23
2022-10-10T03:37:05.404Z,25.13
2022-10-10T03:37:27.178Z,27.50
2022-10-10T03:37:48.871Z,26.40
2022-10-10T03:38:12.488Z,25.15
2022-10-10T03:38:34.452Z,24.85
2022-10-10T03:38:56.188Z,26.45
2022-10-10T03:39:18.158Z,26.90
2022-10-10T03:39:39.959Z,25.25
2022-10-10T03:40:01.710Z,28.00
2022-10-10T03:40:23.659Z,27.88
2022-10-10T03:40:46.417Z,26.40
2022-10-10T03:41:08.214Z,27.23
2022-10-10T03:41:30.073Z,26.10
2022-10-10T03:41:51.823Z,28.25
2022-10-10T03:42:13.829Z,27.98
2022-10-10T03:42:35.755Z,25.33
2022-10-10T03:42:57.815Z,25.10
2022-10-10T03:43:19.930Z,24.95
2022-10-10T03:43:41.783Z,28.10
2022-10-10T03:44:03.567Z,24.52
2022-10-10T03:44:25.511Z,24.67
2022-10-10T03:44:47.308Z,27.05
2022-10-10T03:45:09.411Z,25.77
2022-10-10T03:45:31.083Z,25.88
2022-10-10T03:45:52.892Z,24.60
2022-10-10T03:46:16.464Z,24.73
2022-10-10T03:46:38.384Z,22.77
2022-10-10T03:47:00.152Z,26.77
2022-10-10T03:47:21.837Z,24.73
2022-10-10T03:47:43.773Z,23.83
2022-10-10T03:48:05.965Z,25.98
2022-10-10T03:48:27.879Z,26.55
2022-10-10T03:48:50.257Z,24.92
2022-10-10T03:49:11.964Z,25.77
2022-10-10T03:49:33.669Z,25.85
2022-10-10T03:49:55.492Z,25.42
2022-10-10T03:50:17.385Z,25.92
2022-10-10T03:50:39.313Z,27.40
2022-10-10T03:51:02.030Z,27.95
2022-10-10T03:51:23.773Z,24.05
2022-10-10T03:51:45.508Z,23.83
2022-10-10T03:52:07.235Z,25.90
2022-10-10T03:52:28.958Z,27.25
2022-10-10T03:52:50.905Z,26.10
2022-10-10T03:53:12.905Z,26.63
2022-10-10T03:53:34.903Z,27.00
2022-10-10T03:53:56.829Z,24.95
2022-10-10T03:54:18.723Z,25.55
2022-10-10T03:54:40.472Z,29.83
2022-10-10T03:55:02.196Z,27.85
2022-10-10T03:55:24.054Z,27.52
2022-10-10T03:55:45.794Z,26.00
2022-10-10T03:56:07.722Z,27.20
2022-10-10T03:56:29.425Z,27.27
2022-10-10T03:56:51.111Z,27.45
2022-10-10T03:57:12.841Z,27.42
2022-10-10T03:57:34.714Z,25.27
2022-10-10T03:57:56.563Z,25.75
2022-10-10T03:58:22.920Z,26.98
2022-10-10T03:58:45.681Z,27.73
2022-10-10T03:59:07.408Z,27.70
2022-10-10T03:59:29.107Z,27.60
2022-10-10T03:59:50.855Z,28.60
2022-10-10T04:00:13.112Z,27.38
2022-10-10T04:00:35.068Z,28.15
2022-10-10T04:00:59.727Z,27.08
2022-10-10T04:01:21.466Z,28.52
2022-10-10T04:01:43.275Z,29.33
2022-10-10T04:02:05.278Z,30.05
2022-10-10T04:02:27.113Z,30.27
2022-10-10T04:02:49.440Z,26.15
2022-10-10T04:03:11.345Z,27.30
2022-10-10T04:03:33.410Z,29.20
2022-10-10T04:03:55.545Z,29.00
2022-10-10T04:04:17.415Z,29.08
2022-10-10T04:04:39.114Z,26.33
2022-10-10T04:05:00.827Z,27.33
2022-10-10T04:05:22.797Z,27.10
2022-10-10T04:05:44.845Z,27.20
2022-10-10T04:06:06.853Z,24.98
2022-10-10T04:06:29.236Z,30.48
2022-10-10T04:06:51.187Z,30.23
2022-10-10T04:07:12.884Z,27.65
2022-10-10T04:07:34.561Z,26.45
2022-10-10T04:07:56.299Z,26.27
2022-10-10T04:08:18.251Z,27.40
2022-10-10T04:08:39.957Z,26.55
2022-10-10T04:09:01.674Z,25.40
2022-10-10T04:09:23.444Z,29.88
2022-10-10T04:09:45.168Z,30.77
2022-10-10T04:10:07.927Z,26.35
2022-10-10T04:10:29.845Z,27.63
2022-10-10T04:10:53.241Z,26.70
2022-10-10T04:11:16.222Z,27.98
2022-10-10T04:11:38.657Z,30.00
2022-10-10T04:12:00.481Z,25.92
2022-10-10T04:12:22.610Z,26.30
2022-10-10T04:12:44.355Z,25.35
2022-10-10T04:13:06.282Z,28.23
2022-10-10T04:13:28.682Z,27.45
2022-10-10T04:13:50.367Z,28.13
2022-10-10T04:14:12.289Z,26.92
2022-10-10T04:14:34.072Z,26.98
2022-10-10T04:14:56.034Z,24.83
2022-10-10T04:15:17.806Z,25.48
2022-10-10T04:15:39.663Z,27.67
2022-10-10T04:16:01.422Z,28.45
2022-10-10T04:16:23.125Z,27.02
2022-10-10T04:16:44.832Z,25.45
2022-10-10T04:17:06.647Z,26.40
2022-10-10T04:17:28.397Z,26.77
2022-10-10T04:17:50.335Z,25.33
2022-10-10T04:18:12.451Z,26.08
2022-10-10T04:18:34.335Z,27.52
2022-10-10T04:18:56.041Z,27.15
2022-10-10T04:19:18.207Z,26.17
2022-10-10T04:19:39.969Z,26.77
2022-10-10T04:20:01.696Z,27.30
2022-10-10T04:20:23.510Z,26.35
2022-10-10T04:20:45.269Z,27.23
2022-10-10T04:21:07.053Z,28.42
2022-10-10T04:21:28.815Z,29.67
2022-10-10T04:21:50.937Z,26.25
2022-10-10T04:22:12.726Z,25.55
2022-10-10T04:22:34.489Z,27.00
2022-10-10T04:22:56.251Z,27.95
2022-10-10T04:23:18.000Z,27.55
2022-10-10T04:23:41.155Z,25.48
2022-10-10T04:24:02.869Z,28.13
2022-10-10T04:24:24.613Z,27.52
2022-10-10T04:24:46.316Z,25.20
2022-10-10T04:25:08.394Z,24.38
2022-10-10T04:25:30.351Z,24.35
2022-10-10T04:25:53.030Z,27.17
2022-10-10T04:26:14.752Z,29.80
2022-10-10T04:26:36.489Z,27.27
2022-10-10T04:26:58.376Z,26.38
2022-10-10T04:27:20.139Z,26.85
2022-10-10T04:27:43.777Z,25.90
2022-10-10T04:28:05.511Z,23.55
2022-10-10T04:28:27.263Z,26.98
2022-10-10T04:28:49.216Z,25.15
2022-10-10T04:29:11.017Z,24.98
2022-10-10T04:29:32.968Z,25.73
2022-10-10T04:29:54.825Z,26.00
2022-10-10T04:30:16.705Z,25.58
2022-10-10T04:30:38.508Z,25.58
2022-10-10T04:31:00.295Z,24.25
2022-10-10T04:31:21.997Z,26.13
2022-10-10T04:31:44.242Z,25.52
2022-10-10T04:32:06.027Z,26.13
2022-10-10T04:32:27.743Z,25.30
2022-10-10T04:32:49.763Z,27.00
2022-10-10T04:33:12.350Z,24.20
2022-10-10T04:33:34.147Z,24.85
2022-10-10T04:33:55.954Z,25.40
2022-10-10T04:34:17.878Z,25.92
2022-10-10T04:34:39.624Z,25.25
2022-10-10T04:35:01.371Z,22.90
2022-10-10T04:35:23.112Z,24.17
2022-10-10T04:35:48.787Z,25.63
2022-10-10T04:36:10.690Z,26.95
2022-10-10T04:36:32.614Z,28.08
2022-10-10T04:36:54.691Z,25.27
2022-10-10T04:37:16.409Z,27.70
2022-10-10T04:37:38.760Z,25.67
2022-10-10T04:38:00.614Z,25.63
2022-10-10T04:38:23.032Z,23.05
2022-10-10T04:38:44.930Z,23.65
2022-10-10T04:39:06.817Z,24.00
2022-10-10T04:39:28.625Z,23.75
2022-10-10T04:39:50.438Z,23.15
2022-10-10T04:40:13.820Z,25.20
2022-10-10T04:40:36.896Z,22.60
2022-10-10T04:40:58.891Z,25.50
2022-10-10T04:41:20.577Z,25.15
2022-10-10T04:41:42.313Z,27.23
2022-10-10T04:42:04.594Z,26.58
2022-10-10T04:42:26.370Z,27.38
2022-10-10T04:42:48.243Z,29.58
2022-10-10T04:43:10.415Z,28.10
2022-10-10T04:43:32.144Z,26.92
2022-10-10T04:43:53.865Z,25.80
2022-10-10T04:44:19.262Z,26.67
2022-10-10T04:44:40.969Z,24.05
2022-10-10T04:45:02.712Z,25.15
2022-10-10T04:45:27.559Z,25.95
2022-10-10T04:45:49.258Z,24.50
2022-10-10T04:46:10.938Z,23.40
2022-10-10T04:46:32.697Z,26.42
2022-10-10T04:46:54.404Z,26.83
2022-10-10T04:47:16.795Z,27.33
2022-10-10T04:47:38.557Z,25.77
2022-10-10T04:48:00.472Z,26.27
2022-10-10T04:48:22.220Z,26.85
2022-10-10T04:48:44.196Z,26.58
2022-10-10T04:49:05.881Z,27.73
2022-10-10T04:49:27.592Z,26.45
2022-10-10T04:49:49.346Z,27.45
2022-10-10T04:50:11.274Z,30.98
2022-10-10T04:50:33.313Z,32.25
2022-10-10T04:50:57.203Z,31.63
2022-10-10T04:51:19.126Z,27.67
2022-10-10T04:51:40.842Z,27.48
2022-10-10T04:52:02.713Z,28.00
2022-10-10T04:52:24.673Z,30.75
2022-10-10T04:52:46.708Z,29.52
2022-10-10T04:53:08.529Z,29.83
2022-10-10T04:53:30.253Z,29.95
2022-10-10T04:53:52.062Z,30.85
2022-10-10T04:54:13.876Z,31.38
2022-10-10T04:54:35.905Z,33.80
2022-10-10T04:54:57.841Z,30.58
2022-10-10T04:55:19.590Z,27.85
2022-10-10T04:55:41.265Z,30.20
2022-10-10T04:56:03.012Z,30.17
2022-10-10T04:56:26.247Z,26.63
2022-10-10T04:56:48.214Z,27.75
2022-10-10T04:57:09.945Z,30.85
2022-10-10T04:57:31.701Z,30.10
2022-10-10T04:57:53.714Z,30.90
2022-10-10T04:58:15.516Z,32.85
2022-10-10T04:58:39.282Z,31.65
2022-10-10T04:59:01.084Z,30.10
2022-10-10T04:59:22.971Z,30.63
2022-10-10T04:59:45.104Z,29.38
2022-10-10T05:00:07.342Z,29.05
2022-10-10T05:00:29.085Z,27.90
2022-10-10T05:00:55.100Z,30.33
2022-10-10T05:01:16.993Z,28.88
2022-10-10T05:01:39.000Z,29.80
2022-10-10T05:02:02.026Z,28.40
2022-10-10T05:02:23.993Z,29.05
2022-10-10T05:02:45.733Z,28.95
2022-10-10T05:03:07.882Z,27.45
2022-10-10T05:03:30.172Z,28.55
2022-10-10T05:03:51.854Z,27.98
2022-10-10T05:04:14.539Z,30.67
2022-10-10T05:04:36.685Z,29.23
2022-10-10T05:04:58.424Z,29.67
2022-10-10T05:05:20.116Z,29.83
2022-10-10T05:05:41.909Z,29.73
2022-10-10T05:06:03.850Z,27.73
2022-10-10T05:06:25.555Z,28.85
2022-10-10T05:06:47.321Z,26.60
2022-10-10T05:07:09.042Z,27.42
2022-10-10T05:07:30.973Z,31.83
2022-10-10T05:07:55.453Z,31.58
2022-10-10T05:08:18.230Z,30.02
2022-10-10T05:08:40.124Z,29.10
2022-10-10T05:09:02.414Z,30.38
2022-10-10T05:09:24.215Z,26.38
2022-10-10T05:09:45.928Z,27.25
2022-10-10T05:10:08.148Z,27.55
2022-10-10T05:10:29.852Z,28.95
2022-10-10T05:10:53.853Z,27.67
2022-10-10T05:11:17.905Z,25.23
2022-10-10T05:11:39.633Z,28.17
2022-10-10T05:12:02.016Z,27.23
2022-10-10T05:12:23.819Z,27.38
2022-10-10T05:12:45.642Z,28.13
2022-10-10T05:13:14.724Z,25.60
2022-10-10T05:13:36.436Z,28.33
2022-10-10T05:13:58.367Z,28.25
2022-10-10T05:14:20.067Z,27.65
2022-10-10T05:14:47.215Z,25.45
2022-10-10T05:15:10.152Z,33.40
2022-10-10T05:15:35.803Z,30.73
2022-10-10T05:15:57.561Z,30.58
2022-10-10T05:16:19.386Z,29.00
2022-10-10T05:16:41.106Z,28.65
2022-10-10T05:17:02.849Z,30.70